Vivian, South Dakota
Current Conditions -  °F | °C
As of 12:53 AM on Tuesday 21 Oct 2014 (Local Time) from KPIR Reporting Station
Clear Clear  
Wind Chill: 57°   Ceiling: Unl
Heat Index: 57°   Visibility: 10mi
Dew Point: 38°   Wind: 14mph
Humidity: 49%   Direction: 120°ESE
Pressure: 29.91"   Gusts: NA
Location:  43.93°N, 100.29°W
Report Text: KPIR 210553Z AUTO 12012KT 10SM CLR 14/03 A2991 RMK AO2 SLP122 T01390033 10178 20139 402440006 58005
Loading
Personal Weather Stations






























Interactive Weather Map
Tropical Storm Tracking
New forecast layout! Learn more

10-Day Weather Forecast

Advertisements
Track Severe Weather on mobile